Terminal Aerodrome Forecast
Issued by NWS

Home | Current Version | Previous Version | Text Only | Print | Product List | Glossary Off
Versions: 1 2 3 4 5 6 7 8 9 10 11 12 13 14 15 16 17 18 19 20 21 22 23 24 25 26 27 28 29 30 31 32 33 34

000
FTUS43 KLOT 260800 AAA
TAFORD
TAF AMD
KORD 260856Z 2609/2712 01010G16KT 1 1/2SM -SN OVC015
      TEMPO 2609/2612 1/2SM SHSN VV008
     FM261500 01012G17KT 4SM -SHSN BKN020 OVC030
     FM261700 36012G17KT P6SM VCSH SCT020 BKN035
     FM262100 34012KT P6SM SCT035
     FM270100 33007KT P6SM FEW040=

USA.gov is the U.S. government's official web portal to all federal, state and local government web resources and services.